sensor_id;sensor_type;location;lat;lon;timestamp;temperature;humidity
20147;DHT22;10234;50.856;15.716;2023-12-28T00:01:32;7.80;91.90
20147;DHT22;10234;50.856;15.716;2023-12-28T00:06:36;7.60;92.10
20147;DHT22;10234;50.856;15.716;2023-12-28T00:09:16;7.50;92.20
20147;DHT22;10234;50.856;15.716;2023-12-28T00:11:43;8.20;92.70
20147;DHT22;10234;50.856;15.716;2023-12-28T00:14:11;7.20;96.10
20147;DHT22;10234;50.856;15.716;2023-12-28T00:16:40;6.60;92.30
20147;DHT22;10234;50.856;15.716;2023-12-28T00:19:07;8.80;92.70
20147;DHT22;10234;50.856;15.716;2023-12-28T00:21:34;8.10;92.10
20147;DHT22;10234;50.856;15.716;2023-12-28T00:24:02;9.50;92.20
20147;DHT22;10234;50.856;15.716;2023-12-28T00:26:29;8.00;92.40
20147;DHT22;10234;50.856;15.716;2023-12-28T00:28:56;7.60;87.40
20147;DHT22;10234;50.856;15.716;2023-12-28T00:31:23;8.10;86.40
20147;DHT22;10234;50.856;15.716;2023-12-28T00:33:51;8.00;88.10
20147;DHT22;10234;50.856;15.716;2023-12-28T00:36:18;7.80;92.60
20147;DHT22;10234;50.856;15.716;2023-12-28T00:38:47;7.60;87.90
20147;DHT22;10234;50.856;15.716;2023-12-28T00:41:14;7.70;89.80
20147;DHT22;10234;50.856;15.716;2023-12-28T00:43:42;8.40;89.20
20147;DHT22;10234;50.856;15.716;2023-12-28T00:46:16;7.50;90.10
20147;DHT22;10234;50.856;15.716;2023-12-28T00:48:43;7.50;88.30
20147;DHT22;10234;50.856;15.716;2023-12-28T00:51:11;7.50;89.50
20147;DHT22;10234;50.856;15.716;2023-12-28T00:53:39;7.40;90.00
20147;DHT22;10234;50.856;15.716;2023-12-28T00:56:06;7.80;89.40
20147;DHT22;10234;50.856;15.716;2023-12-28T00:58:34;7.30;88.70
20147;DHT22;10234;50.856;15.716;2023-12-28T01:01:01;7.30;91.90
20147;DHT22;10234;50.856;15.716;2023-12-28T01:05:56;7.90;92.00
20147;DHT22;10234;50.856;15.716;2023-12-28T01:08:24;7.70;90.30
20147;DHT22;10234;50.856;15.716;2023-12-28T01:10:51;9.10;89.80
20147;DHT22;10234;50.856;15.716;2023-12-28T01:13:18;8.40;87.80
20147;DHT22;10234;50.856;15.716;2023-12-28T01:15:45;7.50;86.90
20147;DHT22;10234;50.856;15.716;2023-12-28T01:18:12;7.50;86.60
20147;DHT22;10234;50.856;15.716;2023-12-28T01:20:39;8.60;87.60
20147;DHT22;10234;50.856;15.716;2023-12-28T01:23:08;7.40;87.10
20147;DHT22;10234;50.856;15.716;2023-12-28T01:25:36;7.30;86.20
20147;DHT22;10234;50.856;15.716;2023-12-28T01:28:03;7.60;86.00
20147;DHT22;10234;50.856;15.716;2023-12-28T01:30:33;7.60;85.60
20147;DHT22;10234;50.856;15.716;2023-12-28T01:33:04;7.80;84.30
20147;DHT22;10234;50.856;15.716;2023-12-28T01:35:31;7.60;91.30
20147;DHT22;10234;50.856;15.716;2023-12-28T01:37:58;7.60;85.20
20147;DHT22;10234;50.856;15.716;2023-12-28T01:40:26;7.50;86.10
20147;DHT22;10234;50.856;15.716;2023-12-28T01:42:55;7.40;87.40
20147;DHT22;10234;50.856;15.716;2023-12-28T01:45:22;9.70;90.50
20147;DHT22;10234;50.856;15.716;2023-12-28T01:47:49;7.50;86.90
20147;DHT22;10234;50.856;15.716;2023-12-28T01:52:48;7.40;86.40
20147;DHT22;10234;50.856;15.716;2023-12-28T01:55:17;7.40;86.80
20147;DHT22;10234;50.856;15.716;2023-12-28T01:57:46;7.50;85.80
20147;DHT22;10234;50.856;15.716;2023-12-28T02:00:18;8.50;86.50
20147;DHT22;10234;50.856;15.716;2023-12-28T02:05:19;7.60;83.70
20147;DHT22;10234;50.856;15.716;2023-12-28T02:07:46;7.50;91.00
20147;DHT22;10234;50.856;15.716;2023-12-28T02:10:13;7.50;84.30
20147;DHT22;10234;50.856;15.716;2023-12-28T02:12:40;7.50;85.30
20147;DHT22;10234;50.856;15.716;2023-12-28T02:15:08;7.60;84.20
20147;DHT22;10234;50.856;15.716;2023-12-28T02:17:47;7.50;83.40
20147;DHT22;10234;50.856;15.716;2023-12-28T02:20:15;7.00;83.20
20147;DHT22;10234;50.856;15.716;2023-12-28T02:22:43;7.60;82.30
20147;DHT22;10234;50.856;15.716;2023-12-28T02:25:15;7.50;82.00
20147;DHT22;10234;50.856;15.716;2023-12-28T02:27:43;7.70;79.50
20147;DHT22;10234;50.856;15.716;2023-12-28T02:30:14;8.00;79.70
20147;DHT22;10234;50.856;15.716;2023-12-28T02:32:55;7.90;78.70
20147;DHT22;10234;50.856;15.716;2023-12-28T02:35:31;8.00;77.60
20147;DHT22;10234;50.856;15.716;2023-12-28T02:38:02;8.00;77.60
20147;DHT22;10234;50.856;15.716;2023-12-28T02:40:36;8.00;78.00
20147;DHT22;10234;50.856;15.716;2023-12-28T02:43:04;7.90;78.20
20147;DHT22;10234;50.856;15.716;2023-12-28T02:45:31;7.60;78.70
20147;DHT22;10234;50.856;15.716;2023-12-28T02:47:59;7.90;78.40
20147;DHT22;10234;50.856;15.716;2023-12-28T02:50:26;8.40;79.20
20147;DHT22;10234;50.856;15.716;2023-12-28T02:53:00;8.00;85.60
20147;DHT22;10234;50.856;15.716;2023-12-28T02:55:30;8.50;77.10
20147;DHT22;10234;50.856;15.716;2023-12-28T02:57:59;8.20;76.20
20147;DHT22;10234;50.856;15.716;2023-12-28T03:00:27;8.00;75.80
20147;DHT22;10234;50.856;15.716;2023-12-28T03:08:00;8.00;75.00
20147;DHT22;10234;50.856;15.716;2023-12-28T03:10:27;12.30;79.70
20147;DHT22;10234;50.856;15.716;2023-12-28T03:15:25;10.10;73.60
20147;DHT22;10234;50.856;15.716;2023-12-28T03:20:22;8.30;72.20
20147;DHT22;10234;50.856;15.716;2023-12-28T03:22:49;8.80;74.10
20147;DHT22;10234;50.856;15.716;2023-12-28T03:25:16;9.10;73.10
20147;DHT22;10234;50.856;15.716;2023-12-28T03:27:43;8.40;72.80
20147;DHT22;10234;50.856;15.716;2023-12-28T03:30:11;8.40;72.40
20147;DHT22;10234;50.856;15.716;2023-12-28T03:32:43;8.40;73.40
20147;DHT22;10234;50.856;15.716;2023-12-28T03:35:12;8.20;82.20
20147;DHT22;10234;50.856;15.716;2023-12-28T03:37:39;8.10;73.90
20147;DHT22;10234;50.856;15.716;2023-12-28T03:40:07;8.10;73.40
20147;DHT22;10234;50.856;15.716;2023-12-28T03:42:34;8.10;73.90
20147;DHT22;10234;50.856;15.716;2023-12-28T03:45:05;8.10;73.30
20147;DHT22;10234;50.856;15.716;2023-12-28T03:47:32;8.10;73.80
20147;DHT22;10234;50.856;15.716;2023-12-28T03:50:00;8.10;74.10
20147;DHT22;10234;50.856;15.716;2023-12-28T03:52:27;8.00;75.40
20147;DHT22;10234;50.856;15.716;2023-12-28T03:54:56;8.00;74.30
20147;DHT22;10234;50.856;15.716;2023-12-28T03:57:25;8.00;74.60
20147;DHT22;10234;50.856;15.716;2023-12-28T03:59:52;8.00;75.00
20147;DHT22;10234;50.856;15.716;2023-12-28T04:02:19;7.30;75.30
20147;DHT22;10234;50.856;15.716;2023-12-28T04:04:46;8.40;75.10
20147;DHT22;10234;50.856;15.716;2023-12-28T04:07:17;8.00;75.40
20147;DHT22;10234;50.856;15.716;2023-12-28T04:09:45;8.00;74.40
20147;DHT22;10234;50.856;15.716;2023-12-28T04:12:12;7.90;83.00
20147;DHT22;10234;50.856;15.716;2023-12-28T04:17:08;7.90;74.10
20147;DHT22;10234;50.856;15.716;2023-12-28T04:22:02;7.80;74.60
20147;DHT22;10234;50.856;15.716;2023-12-28T04:24:31;7.70;77.90
20147;DHT22;10234;50.856;15.716;2023-12-28T04:26:58;7.60;78.20
20147;DHT22;10234;50.856;15.716;2023-12-28T04:29:25;9.00;79.10
20147;DHT22;10234;50.856;15.716;2023-12-28T04:34:19;7.60;75.60
20147;DHT22;10234;50.856;15.716;2023-12-28T04:36:46;7.50;75.80
20147;DHT22;10234;50.856;15.716;2023-12-28T04:39:15;7.60;75.90
20147;DHT22;10234;50.856;15.716;2023-12-28T04:41:44;7.50;76.60
20147;DHT22;10234;50.856;15.716;2023-12-28T04:44:11;7.50;77.30
20147;DHT22;10234;50.856;15.716;2023-12-28T04:46:41;7.50;76.50
20147;DHT22;10234;50.856;15.716;2023-12-28T04:49:10;7.40;76.40
20147;DHT22;10234;50.856;15.716;2023-12-28T04:51:42;7.30;77.50
20147;DHT22;10234;50.856;15.716;2023-12-28T04:54:09;7.20;86.80
20147;DHT22;10234;50.856;15.716;2023-12-28T04:56:37;7.00;79.00
20147;DHT22;10234;50.856;15.716;2023-12-28T04:59:05;6.80;78.90
20147;DHT22;10234;50.856;15.716;2023-12-28T05:01:32;7.00;78.90
20147;DHT22;10234;50.856;15.716;2023-12-28T05:03:59;6.80;77.50
20147;DHT22;10234;50.856;15.716;2023-12-28T05:06:29;6.80;77.60
20147;DHT22;10234;50.856;15.716;2023-12-28T05:08:56;7.30;77.60
20147;DHT22;10234;50.856;15.716;2023-12-28T05:11:23;6.70;77.40
20147;DHT22;10234;50.856;15.716;2023-12-28T05:13:50;6.60;78.20
20147;DHT22;10234;50.856;15.716;2023-12-28T05:16:19;6.80;76.40
20147;DHT22;10234;50.856;15.716;2023-12-28T05:18:46;6.90;71.90
20147;DHT22;10234;50.856;15.716;2023-12-28T05:21:13;7.60;67.50
20147;DHT22;10234;50.856;15.716;2023-12-28T05:23:40;8.10;65.20
20147;DHT22;10234;50.856;15.716;2023-12-28T05:26:07;8.60;61.20
20147;DHT22;10234;50.856;15.716;2023-12-28T05:28:34;8.90;60.40
20147;DHT22;10234;50.856;15.716;2023-12-28T05:31:00;9.30;58.00
20147;DHT22;10234;50.856;15.716;2023-12-28T05:33:29;9.50;58.30
20147;DHT22;10234;50.856;15.716;2023-12-28T05:35:56;9.60;57.10
20147;DHT22;10234;50.856;15.716;2023-12-28T05:38:23;9.70;57.20
20147;DHT22;10234;50.856;15.716;2023-12-28T05:40:50;9.70;57.00
20147;DHT22;10234;50.856;15.716;2023-12-28T05:43:16;9.80;57.40
20147;DHT22;10234;50.856;15.716;2023-12-28T05:45:44;9.70;58.00
20147;DHT22;10234;50.856;15.716;2023-12-28T05:48:11;9.50;59.60
20147;DHT22;10234;50.856;15.716;2023-12-28T05:50:39;9.60;58.90
20147;DHT22;10234;50.856;15.716;2023-12-28T05:53:12;9.80;57.50
20147;DHT22;10234;50.856;15.716;2023-12-28T05:58:10;9.10;58.70
20147;DHT22;10234;50.856;15.716;2023-12-28T06:00:40;9.80;65.70
20147;DHT22;10234;50.856;15.716;2023-12-28T06:03:08;12.40;63.80
20147;DHT22;10234;50.856;15.716;2023-12-28T06:05:35;9.70;59.20
20147;DHT22;10234;50.856;15.716;2023-12-28T06:08:06;9.50;60.00
20147;DHT22;10234;50.856;15.716;2023-12-28T06:10:35;9.50;60.10
20147;DHT22;10234;50.856;15.716;2023-12-28T06:13:05;9.50;63.30
20147;DHT22;10234;50.856;15.716;2023-12-28T06:15:32;9.60;60.20
20147;DHT22;10234;50.856;15.716;2023-12-28T06:17:59;9.20;60.50
20147;DHT22;10234;50.856;15.716;2023-12-28T06:20:27;9.90;60.60
20147;DHT22;10234;50.856;15.716;2023-12-28T06:22:54;9.90;61.30
20147;DHT22;10234;50.856;15.716;2023-12-28T06:25:22;9.80;63.50
20147;DHT22;10234;50.856;15.716;2023-12-28T06:27:49;9.70;64.50
20147;DHT22;10234;50.856;15.716;2023-12-28T06:30:16;9.60;65.30
20147;DHT22;10234;50.856;15.716;2023-12-28T06:32:44;9.50;65.40
20147;DHT22;10234;50.856;15.716;2023-12-28T06:35:11;9.50;65.00
20147;DHT22;10234;50.856;15.716;2023-12-28T06:37:38;9.50;63.90
20147;DHT22;10234;50.856;15.716;2023-12-28T06:40:08;9.60;64.00
20147;DHT22;10234;50.856;15.716;2023-12-28T06:42:37;9.80;62.70
20147;DHT22;10234;50.856;15.716;2023-12-28T06:45:05;10.00;64.50
20147;DHT22;10234;50.856;15.716;2023-12-28T06:47:32;10.10;64.60
20147;DHT22;10234;50.856;15.716;2023-12-28T06:49:59;10.20;68.10
20147;DHT22;10234;50.856;15.716;2023-12-28T06:52:27;10.30;67.10
20147;DHT22;10234;50.856;15.716;2023-12-28T06:54:54;10.40;66.30
20147;DHT22;10234;50.856;15.716;2023-12-28T06:57:21;10.50;65.60
20147;DHT22;10234;50.856;15.716;2023-12-28T06:59:50;10.70;67.00
20147;DHT22;10234;50.856;15.716;2023-12-28T07:02:18;11.50;68.40
20147;DHT22;10234;50.856;15.716;2023-12-28T07:04:45;10.70;70.90
20147;DHT22;10234;50.856;15.716;2023-12-28T07:07:12;10.50;71.70
20147;DHT22;10234;50.856;15.716;2023-12-28T07:09:39;10.60;71.60
20147;DHT22;10234;50.856;15.716;2023-12-28T07:12:06;10.60;72.50
20147;DHT22;10234;50.856;15.716;2023-12-28T07:14:33;10.70;75.30
20147;DHT22;10234;50.856;15.716;2023-12-28T07:17:04;10.50;74.90
20147;DHT22;10234;50.856;15.716;2023-12-28T07:19:32;10.70;73.20
20147;DHT22;10234;50.856;15.716;2023-12-28T07:21:59;10.60;74.20
20147;DHT22;10234;50.856;15.716;2023-12-28T07:24:26;10.60;73.50
20147;DHT22;10234;50.856;15.716;2023-12-28T07:26:53;10.40;76.00
20147;DHT22;10234;50.856;15.716;2023-12-28T07:29:24;10.40;77.50
20147;DHT22;10234;50.856;15.716;2023-12-28T07:31:51;10.50;79.50
20147;DHT22;10234;50.856;15.716;2023-12-28T07:34:23;10.50;75.90
20147;DHT22;10234;50.856;15.716;2023-12-28T07:36:49;10.50;76.80
20147;DHT22;10234;50.856;15.716;2023-12-28T07:39:16;10.60;80.00
20147;DHT22;10234;50.856;15.716;2023-12-28T07:41:44;10.70;83.90
20147;DHT22;10234;50.856;15.716;2023-12-28T07:44:11;10.90;79.50
20147;DHT22;10234;50.856;15.716;2023-12-28T07:46:38;10.70;76.60
20147;DHT22;10234;50.856;15.716;2023-12-28T07:49:05;10.50;76.80
20147;DHT22;10234;50.856;15.716;2023-12-28T07:51:33;10.50;76.40
20147;DHT22;10234;50.856;15.716;2023-12-28T07:54:01;10.40;78.50
20147;DHT22;10234;50.856;15.716;2023-12-28T07:56:29;10.30;78.70
20147;DHT22;10234;50.856;15.716;2023-12-28T07:58:56;10.20;81.20
20147;DHT22;10234;50.856;15.716;2023-12-28T08:01:23;10.80;89.50
20147;DHT22;10234;50.856;15.716;2023-12-28T08:03:50;11.30;82.00
20147;DHT22;10234;50.856;15.716;2023-12-28T08:06:17;12.00;80.00
20147;DHT22;10234;50.856;15.716;2023-12-28T08:08:46;13.10;81.70
20147;DHT22;10234;50.856;15.716;2023-12-28T08:11:13;14.40;79.10
20147;DHT22;10234;50.856;15.716;2023-12-28T08:13:40;15.40;76.20
20147;DHT22;10234;50.856;15.716;2023-12-28T08:16:07;16.80;74.20
20147;DHT22;10234;50.856;15.716;2023-12-28T08:18:35;17.70;69.20
20147;DHT22;10234;50.856;15.716;2023-12-28T08:21:02;18.10;66.40
20147;DHT22;10234;50.856;15.716;2023-12-28T08:23:29;17.70;66.50
20147;DHT22;10234;50.856;15.716;2023-12-28T08:25:58;16.40;68.00
20147;DHT22;10234;50.856;15.716;2023-12-28T08:28:25;15.30;70.50
20147;DHT22;10234;50.856;15.716;2023-12-28T08:30:52;14.40;72.50
20147;DHT22;10234;50.856;15.716;2023-12-28T08:33:19;13.40;76.50
20147;DHT22;10234;50.856;15.716;2023-12-28T08:35:46;14.40;79.40
20147;DHT22;10234;50.856;15.716;2023-12-28T08:38:13;12.50;80.30
20147;DHT22;10234;50.856;15.716;2023-12-28T08:40:41;11.90;84.30
20147;DHT22;10234;50.856;15.716;2023-12-28T08:43:11;11.40;86.10
20147;DHT22;10234;50.856;15.716;2023-12-28T08:45:39;10.70;87.20
20147;DHT22;10234;50.856;15.716;2023-12-28T08:48:08;10.60;84.90
20147;DHT22;10234;50.856;15.716;2023-12-28T08:50:36;10.10;87.80
20147;DHT22;10234;50.856;15.716;2023-12-28T08:53:03;10.00;88.90
20147;DHT22;10234;50.856;15.716;2023-12-28T08:55:30;9.70;89.80
20147;DHT22;10234;50.856;15.716;2023-12-28T08:57:59;9.50;90.70
20147;DHT22;10234;50.856;15.716;2023-12-28T09:00:28;9.40;91.30
20147;DHT22;10234;50.856;15.716;2023-12-28T09:02:57;9.20;91.50
20147;DHT22;10234;50.856;15.716;2023-12-28T09:05:26;9.30;91.70
20147;DHT22;10234;50.856;15.716;2023-12-28T09:07:53;9.30;92.20
20147;DHT22;10234;50.856;15.716;2023-12-28T09:10:20;9.40;92.90
20147;DHT22;10234;50.856;15.716;2023-12-28T09:12:50;9.70;92.60
20147;DHT22;10234;50.856;15.716;2023-12-28T09:15:17;9.90;91.50
20147;DHT22;10234;50.856;15.716;2023-12-28T09:17:45;10.00;91.30
20147;DHT22;10234;50.856;15.716;2023-12-28T09:20:13;10.30;90.80
20147;DHT22;10234;50.856;15.716;2023-12-28T09:22:40;10.60;90.00
20147;DHT22;10234;50.856;15.716;2023-12-28T09:25:07;10.60;90.10
20147;DHT22;10234;50.856;15.716;2023-12-28T09:27:34;10.60;89.80
20147;DHT22;10234;50.856;15.716;2023-12-28T09:30:01;10.60;90.20
20147;DHT22;10234;50.856;15.716;2023-12-28T09:32:29;10.80;90.00
20147;DHT22;10234;50.856;15.716;2023-12-28T09:34:57;10.90;90.50
20147;DHT22;10234;50.856;15.716;2023-12-28T09:37:25;11.10;89.60
20147;DHT22;10234;50.856;15.716;2023-12-28T09:39:52;11.10;89.70
20147;DHT22;10234;50.856;15.716;2023-12-28T09:42:25;11.60;88.30
20147;DHT22;10234;50.856;15.716;2023-12-28T09:44:54;11.70;86.80
20147;DHT22;10234;50.856;15.716;2023-12-28T09:47:21;10.70;88.70
20147;DHT22;10234;50.856;15.716;2023-12-28T09:49:49;11.70;90.00
20147;DHT22;10234;50.856;15.716;2023-12-28T09:52:19;11.70;89.10
20147;DHT22;10234;50.856;15.716;2023-12-28T09:54:46;11.20;88.70
20147;DHT22;10234;50.856;15.716;2023-12-28T09:57:13;11.60;87.10
20147;DHT22;10234;50.856;15.716;2023-12-28T09:59:41;12.00;86.80
20147;DHT22;10234;50.856;15.716;2023-12-28T10:02:09;11.40;88.70
20147;DHT22;10234;50.856;15.716;2023-12-28T10:04:36;11.20;89.00
20147;DHT22;10234;50.856;15.716;2023-12-28T10:07:04;11.00;89.50
20147;DHT22;10234;50.856;15.716;2023-12-28T10:09:33;10.70;88.30
20147;DHT22;10234;50.856;15.716;2023-12-28T10:12:00;10.40;90.10
20147;DHT22;10234;50.856;15.716;2023-12-28T10:14:29;10.20;91.20
20147;DHT22;10234;50.856;15.716;2023-12-28T10:16:57;10.20;90.70
20147;DHT22;10234;50.856;15.716;2023-12-28T10:19:24;9.90;94.00
20147;DHT22;10234;50.856;15.716;2023-12-28T10:21:51;9.90;91.40
20147;DHT22;10234;50.856;15.716;2023-12-28T10:26:48;10.70;91.60
20147;DHT22;10234;50.856;15.716;2023-12-28T10:31:43;9.60;92.20
20147;DHT22;10234;50.856;15.716;2023-12-28T10:34:15;9.60;92.20
20147;DHT22;10234;50.856;15.716;2023-12-28T10:36:42;9.70;92.70
20147;DHT22;10234;50.856;15.716;2023-12-28T10:39:10;9.70;93.00
20147;DHT22;10234;50.856;15.716;2023-12-28T10:41:41;9.80;93.00
20147;DHT22;10234;50.856;15.716;2023-12-28T10:44:15;10.20;92.20
20147;DHT22;10234;50.856;15.716;2023-12-28T10:46:50;10.20;92.30
20147;DHT22;10234;50.856;15.716;2023-12-28T10:49:21;10.20;92.60
20147;DHT22;10234;50.856;15.716;2023-12-28T10:51:51;10.40;92.20
20147;DHT22;10234;50.856;15.716;2023-12-28T10:54:28;10.60;92.00
20147;DHT22;10234;50.856;15.716;2023-12-28T10:57:04;10.60;92.50
20147;DHT22;10234;50.856;15.716;2023-12-28T10:59:48;10.70;92.30
20147;DHT22;10234;50.856;15.716;2023-12-28T11:02:18;12.70;92.50
20147;DHT22;10234;50.856;15.716;2023-12-28T11:05:12;10.70;91.70
20147;DHT22;10234;50.856;15.716;2023-12-28T11:07:40;10.90;92.30
20147;DHT22;10234;50.856;15.716;2023-12-28T11:10:08;11.00;92.30
20147;DHT22;10234;50.856;15.716;2023-12-28T11:12:37;10.80;92.20
20147;DHT22;10234;50.856;15.716;2023-12-28T11:15:06;10.80;91.80
20147;DHT22;10234;50.856;15.716;2023-12-28T11:17:35;10.90;91.50
20147;DHT22;10234;50.856;15.716;2023-12-28T11:20:05;10.80;92.20
20147;DHT22;10234;50.856;15.716;2023-12-28T11:22:35;10.90;92.80
20147;DHT22;10234;50.856;15.716;2023-12-28T11:25:03;11.00;94.90
20147;DHT22;10234;50.856;15.716;2023-12-28T11:27:33;11.00;92.80
20147;DHT22;10234;50.856;15.716;2023-12-28T11:30:04;10.10;91.70
20147;DHT22;10234;50.856;15.716;2023-12-28T11:32:32;10.70;92.10
20147;DHT22;10234;50.856;15.716;2023-12-28T11:35:00;10.50;92.20
20147;DHT22;10234;50.856;15.716;2023-12-28T11:37:29;10.20;93.30
20147;DHT22;10234;50.856;15.716;2023-12-28T11:40:10;10.30;92.40
20147;DHT22;10234;50.856;15.716;2023-12-28T11:42:47;10.20;89.70
20147;DHT22;10234;50.856;15.716;2023-12-28T11:45:16;10.10;88.80
20147;DHT22;10234;50.856;15.716;2023-12-28T11:47:46;9.90;88.30
20147;DHT22;10234;50.856;15.716;2023-12-28T11:50:13;9.80;90.00
20147;DHT22;10234;50.856;15.716;2023-12-28T11:52:41;9.70;89.90
20147;DHT22;10234;50.856;15.716;2023-12-28T11:55:09;10.20;90.60
20147;DHT22;10234;50.856;15.716;2023-12-28T11:57:37;9.50;89.50
20147;DHT22;10234;50.856;15.716;2023-12-28T12:00:06;9.50;90.00
20147;DHT22;10234;50.856;15.716;2023-12-28T12:02:34;9.50;89.30
20147;DHT22;10234;50.856;15.716;2023-12-28T12:05:01;9.50;89.00
20147;DHT22;10234;50.856;15.716;2023-12-28T12:07:29;9.40;90.10
20147;DHT22;10234;50.856;15.716;2023-12-28T12:09:58;9.60;90.10
20147;DHT22;10234;50.856;15.716;2023-12-28T12:12:27;9.40;89.60
20147;DHT22;10234;50.856;15.716;2023-12-28T12:14:55;9.40;88.40
20147;DHT22;10234;50.856;15.716;2023-12-28T12:17:22;9.40;88.40
20147;DHT22;10234;50.856;15.716;2023-12-28T12:19:49;9.60;88.70
20147;DHT22;10234;50.856;15.716;2023-12-28T12:22:20;9.20;87.30
20147;DHT22;10234;50.856;15.716;2023-12-28T12:24:49;9.20;86.60
20147;DHT22;10234;50.856;15.716;2023-12-28T12:27:18;9.10;87.20
20147;DHT22;10234;50.856;15.716;2023-12-28T12:29:47;9.10;87.00
20147;DHT22;10234;50.856;15.716;2023-12-28T12:32:14;8.20;87.80
20147;DHT22;10234;50.856;15.716;2023-12-28T12:34:41;9.10;88.20
20147;DHT22;10234;50.856;15.716;2023-12-28T12:37:08;9.00;88.10
20147;DHT22;10234;50.856;15.716;2023-12-28T12:39:35;9.00;88.50
20147;DHT22;10234;50.856;15.716;2023-12-28T12:42:03;9.00;90.00
20147;DHT22;10234;50.856;15.716;2023-12-28T12:44:30;8.90;90.00
20147;DHT22;10234;50.856;15.716;2023-12-28T12:46:59;7.40;88.40
20147;DHT22;10234;50.856;15.716;2023-12-28T12:49:27;8.80;89.60
20147;DHT22;10234;50.856;15.716;2023-12-28T12:51:54;8.90;90.10
20147;DHT22;10234;50.856;15.716;2023-12-28T12:54:23;8.70;90.30
20147;DHT22;10234;50.856;15.716;2023-12-28T12:56:50;8.70;90.30
20147;DHT22;10234;50.856;15.716;2023-12-28T12:59:18;8.60;90.70
20147;DHT22;10234;50.856;15.716;2023-12-28T13:01:48;8.70;90.60
20147;DHT22;10234;50.856;15.716;2023-12-28T13:04:20;8.60;91.10
20147;DHT22;10234;50.856;15.716;2023-12-28T13:06:48;8.60;90.70
20147;DHT22;10234;50.856;15.716;2023-12-28T13:09:15;8.70;90.10
20147;DHT22;10234;50.856;15.716;2023-12-28T13:11:42;8.60;89.90
20147;DHT22;10234;50.856;15.716;2023-12-28T13:14:09;8.60;89.90
20147;DHT22;10234;50.856;15.716;2023-12-28T13:16:36;8.50;90.40
20147;DHT22;10234;50.856;15.716;2023-12-28T13:19:03;8.60;88.90
20147;DHT22;10234;50.856;15.716;2023-12-28T13:21:31;8.60;88.40
20147;DHT22;10234;50.856;15.716;2023-12-28T13:23:58;8.90;89.80
20147;DHT22;10234;50.856;15.716;2023-12-28T13:26:29;8.60;90.20
20147;DHT22;10234;50.856;15.716;2023-12-28T13:28:56;8.50;90.10
20147;DHT22;10234;50.856;15.716;2023-12-28T13:31:23;8.50;90.60
20147;DHT22;10234;50.856;15.716;2023-12-28T13:33:52;8.50;91.20
20147;DHT22;10234;50.856;15.716;2023-12-28T13:36:19;8.40;91.80
20147;DHT22;10234;50.856;15.716;2023-12-28T13:38:47;8.20;91.40
20147;DHT22;10234;50.856;15.716;2023-12-28T13:41:14;8.20;91.90
20147;DHT22;10234;50.856;15.716;2023-12-28T13:43:42;6.50;91.50
20147;DHT22;10234;50.856;15.716;2023-12-28T13:46:09;8.00;94.10
20147;DHT22;10234;50.856;15.716;2023-12-28T13:48:36;8.80;91.20
20147;DHT22;10234;50.856;15.716;2023-12-28T13:51:05;8.40;90.40
20147;DHT22;10234;50.856;15.716;2023-12-28T13:53:31;8.20;93.40
20147;DHT22;10234;50.856;15.716;2023-12-28T13:56:07;8.10;93.30
20147;DHT22;10234;50.856;15.716;2023-12-28T14:01:05;8.00;88.50
20147;DHT22;10234;50.856;15.716;2023-12-28T14:06:00;7.90;92.20
20147;DHT22;10234;50.856;15.716;2023-12-28T14:10:56;7.90;87.60
20147;DHT22;10234;50.856;15.716;2023-12-28T14:13:27;7.80;88.60
20147;DHT22;10234;50.856;15.716;2023-12-28T14:15:56;10.00;92.10
20147;DHT22;10234;50.856;15.716;2023-12-28T14:18:23;7.90;90.30
20147;DHT22;10234;50.856;15.716;2023-12-28T14:20:50;7.50;90.30
20147;DHT22;10234;50.856;15.716;2023-12-28T14:23:18;7.30;91.30
20147;DHT22;10234;50.856;15.716;2023-12-28T14:25:47;7.40;91.40
20147;DHT22;10234;50.856;15.716;2023-12-28T14:28:19;7.70;95.20
20147;DHT22;10234;50.856;15.716;2023-12-28T14:30:53;7.00;95.30
20147;DHT22;10234;50.856;15.716;2023-12-28T14:33:22;7.00;95.10
20147;DHT22;10234;50.856;15.716;2023-12-28T14:35:49;6.90;95.70
20147;DHT22;10234;50.856;15.716;2023-12-28T14:38:16;6.80;93.30
20147;DHT22;10234;50.856;15.716;2023-12-28T14:45:44;6.80;91.60
20147;DHT22;10234;50.856;15.716;2023-12-28T14:48:21;6.60;91.90
20147;DHT22;10234;50.856;15.716;2023-12-28T14:50:49;6.60;92.10
20147;DHT22;10234;50.856;15.716;2023-12-28T14:53:18;6.40;95.30
20147;DHT22;10234;50.856;15.716;2023-12-28T14:58:13;6.30;92.50
20147;DHT22;10234;50.856;15.716;2023-12-28T15:00:44;7.30;96.20
20147;DHT22;10234;50.856;15.716;2023-12-28T15:03:14;8.20;96.00
20147;DHT22;10234;50.856;15.716;2023-12-28T15:05:46;6.60;94.90
20147;DHT22;10234;50.856;15.716;2023-12-28T15:10:45;5.90;94.70
20147;DHT22;10234;50.856;15.716;2023-12-28T15:15:45;5.70;96.00
20147;DHT22;10234;50.856;15.716;2023-12-28T15:18:15;5.90;95.70
20147;DHT22;10234;50.856;15.716;2023-12-28T15:20:47;6.70;97.00
20147;DHT22;10234;50.856;15.716;2023-12-28T15:23:16;6.00;94.90
20147;DHT22;10234;50.856;15.716;2023-12-28T15:25:45;6.50;96.30
20147;DHT22;10234;50.856;15.716;2023-12-28T15:30:42;3.50;93.90
20147;DHT22;10234;50.856;15.716;2023-12-28T15:33:09;7.00;96.90
20147;DHT22;10234;50.856;15.716;2023-12-28T15:35:37;6.80;95.20
20147;DHT22;10234;50.856;15.716;2023-12-28T15:38:06;6.70;96.50
20147;DHT22;10234;50.856;15.716;2023-12-28T15:43:00;6.40;96.90
20147;DHT22;10234;50.856;15.716;2023-12-28T15:45:39;6.30;97.80
20147;DHT22;10234;50.856;15.716;2023-12-28T15:48:10;6.40;99.90
20147;DHT22;10234;50.856;15.716;2023-12-28T15:50:37;6.80;97.30
20147;DHT22;10234;50.856;15.716;2023-12-28T15:53:05;5.70;96.50
20147;DHT22;10234;50.856;15.716;2023-12-28T15:55:33;6.40;96.10
20147;DHT22;10234;50.856;15.716;2023-12-28T15:58:00;6.40;94.80
20147;DHT22;10234;50.856;15.716;2023-12-28T16:00:27;6.50;99.90
20147;DHT22;10234;50.856;15.716;2023-12-28T16:02:54;7.40;97.90
20147;DHT22;10234;50.856;15.716;2023-12-28T16:05:22;6.40;96.90
20147;DHT22;10234;50.856;15.716;2023-12-28T16:07:49;6.50;99.90
20147;DHT22;10234;50.856;15.716;2023-12-28T16:10:16;6.20;98.60
20147;DHT22;10234;50.856;15.716;2023-12-28T16:12:43;6.20;98.90
20147;DHT22;10234;50.856;15.716;2023-12-28T16:15:11;5.50;99.10
20147;DHT22;10234;50.856;15.716;2023-12-28T16:17:38;5.70;99.90
20147;DHT22;10234;50.856;15.716;2023-12-28T16:20:07;6.00;99.90
20147;DHT22;10234;50.856;15.716;2023-12-28T16:22:34;5.70;99.90
20147;DHT22;10234;50.856;15.716;2023-12-28T16:25:01;6.00;99.90
20147;DHT22;10234;50.856;15.716;2023-12-28T16:27:30;6.70;98.70
20147;DHT22;10234;50.856;15.716;2023-12-28T16:29:57;6.70;99.90
20147;DHT22;10234;50.856;15.716;2023-12-28T16:32:24;7.10;99.80
20147;DHT22;10234;50.856;15.716;2023-12-28T16:37:18;5.10;99.90